sensor_id;sensor_type;location;lat;lon;timestamp;P1;durP1;ratioP1;P2;durP2;ratioP2
44919;SDS011;30655;53.094;6.072;2022-09-27T00:00:38;8.63;;;1.75;;
44919;SDS011;30655;53.094;6.072;2022-09-27T00:04:18;4.82;;;0.73;;
44919;SDS011;30655;53.094;6.072;2022-09-27T00:09:31;5.13;;;1.10;;
44919;SDS011;30655;53.094;6.072;2022-09-27T00:12:20;5.20;;;0.60;;
44919;SDS011;30655;53.094;6.072;2022-09-27T00:15:20;5.15;;;0.50;;
44919;SDS011;30655;53.094;6.072;2022-09-27T00:18:13;1.67;;;0.65;;
44919;SDS011;30655;53.094;6.072;2022-09-27T00:21:14;5.07;;;0.80;;
44919;SDS011;30655;53.094;6.072;2022-09-27T00:23:55;5.55;;;0.65;;
44919;SDS011;30655;53.094;6.072;2022-09-27T00:26:56;2.38;;;0.40;;
44919;SDS011;30655;53.094;6.072;2022-09-27T00:29:49;6.20;;;0.80;;
44919;SDS011;30655;53.094;6.072;2022-09-27T00:35:43;5.40;;;0.65;;
44919;SDS011;30655;53.094;6.072;2022-09-27T00:38:45;6.05;;;1.00;;
44919;SDS011;30655;53.094;6.072;2022-09-27T00:41:05;4.93;;;0.50;;
44919;SDS011;30655;53.094;6.072;2022-09-27T00:43:58;5.82;;;0.70;;
44919;SDS011;30655;53.094;6.072;2022-09-27T00:46:35;3.65;;;0.50;;
44919;SDS011;30655;53.094;6.072;2022-09-27T00:49:40;6.47;;;0.80;;
44919;SDS011;30655;53.094;6.072;2022-09-27T00:55:19;2.70;;;0.50;;
44919;SDS011;30655;53.094;6.072;2022-09-27T00:58:05;4.03;;;0.40;;
44919;SDS011;30655;53.094;6.072;2022-09-27T01:00:44;2.85;;;0.63;;
44919;SDS011;30655;53.094;6.072;2022-09-27T01:03:19;3.92;;;0.50;;
44919;SDS011;30655;53.094;6.072;2022-09-27T01:12:21;5.28;;;0.55;;
44919;SDS011;30655;53.094;6.072;2022-09-27T01:15:12;2.85;;;0.40;;
44919;SDS011;30655;53.094;6.072;2022-09-27T01:18:24;4.78;;;0.90;;
44919;SDS011;30655;53.094;6.072;2022-09-27T01:31:18;6.03;;;0.60;;
44919;SDS011;30655;53.094;6.072;2022-09-27T01:34:21;2.90;;;0.40;;
44919;SDS011;30655;53.094;6.072;2022-09-27T01:40:51;4.90;;;0.52;;
44919;SDS011;30655;53.094;6.072;2022-09-27T01:43:37;3.88;;;0.47;;
44919;SDS011;30655;53.094;6.072;2022-09-27T01:46:14;1.75;;;0.40;;
44919;SDS011;30655;53.094;6.072;2022-09-27T01:48:58;4.90;;;0.88;;
44919;SDS011;30655;53.094;6.072;2022-09-27T01:51:39;4.07;;;0.65;;
44919;SDS011;30655;53.094;6.072;2022-09-27T01:54:19;4.30;;;0.43;;
44919;SDS011;30655;53.094;6.072;2022-09-27T01:56:51;21.55;;;0.90;;
44919;SDS011;30655;53.094;6.072;2022-09-27T01:59:51;6.35;;;0.70;;
44919;SDS011;30655;53.094;6.072;2022-09-27T02:02:49;5.88;;;1.30;;
44919;SDS011;30655;53.094;6.072;2022-09-27T02:06:01;5.43;;;0.63;;
44919;SDS011;30655;53.094;6.072;2022-09-27T02:08:53;1.85;;;0.55;;
44919;SDS011;30655;53.094;6.072;2022-09-27T02:11:59;3.90;;;0.55;;
44919;SDS011;30655;53.094;6.072;2022-09-27T02:14:47;3.28;;;0.35;;
44919;SDS011;30655;53.094;6.072;2022-09-27T02:17:28;2.10;;;0.30;;
44919;SDS011;30655;53.094;6.072;2022-09-27T02:20:14;3.55;;;0.60;;
44919;SDS011;30655;53.094;6.072;2022-09-27T02:23:13;2.67;;;0.73;;
44919;SDS011;30655;53.094;6.072;2022-09-27T02:25:50;2.88;;;0.40;;
44919;SDS011;30655;53.094;6.072;2022-09-27T02:29:20;3.28;;;0.43;;
44919;SDS011;30655;53.094;6.072;2022-09-27T02:31:50;1.50;;;0.30;;
44919;SDS011;30655;53.094;6.072;2022-09-27T02:34:40;1.80;;;0.30;;
44919;SDS011;30655;53.094;6.072;2022-09-27T02:37:47;4.78;;;0.40;;
44919;SDS011;30655;53.094;6.072;2022-09-27T02:40:34;1.75;;;0.28;;
44919;SDS011;30655;53.094;6.072;2022-09-27T02:46:17;2.47;;;0.40;;
44919;SDS011;30655;53.094;6.072;2022-09-27T02:49:20;2.45;;;0.63;;
44919;SDS011;30655;53.094;6.072;2022-09-27T02:53:21;4.28;;;0.50;;
44919;SDS011;30655;53.094;6.072;2022-09-27T02:56:03;2.25;;;0.52;;
44919;SDS011;30655;53.094;6.072;2022-09-27T02:58:42;6.57;;;0.55;;
44919;SDS011;30655;53.094;6.072;2022-09-27T03:01:30;10.75;;;0.50;;
44919;SDS011;30655;53.094;6.072;2022-09-27T03:04:26;4.63;;;0.60;;
44919;SDS011;30655;53.094;6.072;2022-09-27T03:07:38;1.92;;;0.30;;
44919;SDS011;30655;53.094;6.072;2022-09-27T03:14:00;3.30;;;0.57;;
44919;SDS011;30655;53.094;6.072;2022-09-27T03:17:10;2.90;;;0.30;;
44919;SDS011;30655;53.094;6.072;2022-09-27T03:19:48;2.88;;;0.45;;
44919;SDS011;30655;53.094;6.072;2022-09-27T03:22:20;6.60;;;0.50;;
44919;SDS011;30655;53.094;6.072;2022-09-27T03:24:50;3.33;;;0.50;;
44919;SDS011;30655;53.094;6.072;2022-09-27T03:27:20;4.68;;;0.38;;
44919;SDS011;30655;53.094;6.072;2022-09-27T03:30:07;6.22;;;0.50;;
44919;SDS011;30655;53.094;6.072;2022-09-27T03:33:10;2.40;;;0.38;;
44919;SDS011;30655;53.094;6.072;2022-09-27T03:35:40;2.42;;;0.40;;
44919;SDS011;30655;53.094;6.072;2022-09-27T03:41:07;3.72;;;0.40;;
44919;SDS011;30655;53.094;6.072;2022-09-27T03:43:38;4.28;;;0.60;;
44919;SDS011;30655;53.094;6.072;2022-09-27T03:49:24;5.28;;;0.50;;
44919;SDS011;30655;53.094;6.072;2022-09-27T03:52:07;5.05;;;0.70;;
44919;SDS011;30655;53.094;6.072;2022-09-27T03:57:52;4.22;;;0.55;;
44919;SDS011;30655;53.094;6.072;2022-09-27T04:00:46;1.10;;;0.28;;
44919;SDS011;30655;53.094;6.072;2022-09-27T04:03:23;1.90;;;0.20;;
44919;SDS011;30655;53.094;6.072;2022-09-27T04:06:01;1.92;;;0.30;;
44919;SDS011;30655;53.094;6.072;2022-09-27T04:08:49;3.05;;;0.50;;
44919;SDS011;30655;53.094;6.072;2022-09-27T04:11:27;1.13;;;0.25;;
44919;SDS011;30655;53.094;6.072;2022-09-27T04:16:42;2.58;;;0.40;;
44919;SDS011;30655;53.094;6.072;2022-09-27T04:19:36;3.97;;;0.30;;
44919;SDS011;30655;53.094;6.072;2022-09-27T04:22:31;5.25;;;0.45;;
44919;SDS011;30655;53.094;6.072;2022-09-27T04:25:25;4.25;;;0.40;;
44919;SDS011;30655;53.094;6.072;2022-09-27T04:27:52;2.78;;;0.40;;
44919;SDS011;30655;53.094;6.072;2022-09-27T04:30:48;4.30;;;0.50;;
44919;SDS011;30655;53.094;6.072;2022-09-27T04:33:26;3.70;;;0.30;;
44919;SDS011;30655;53.094;6.072;2022-09-27T04:36:08;2.63;;;0.55;;
44919;SDS011;30655;53.094;6.072;2022-09-27T04:41:51;3.42;;;0.70;;
44919;SDS011;30655;53.094;6.072;2022-09-27T04:44:57;3.35;;;0.30;;
44919;SDS011;30655;53.094;6.072;2022-09-27T04:48:16;3.65;;;1.15;;
44919;SDS011;30655;53.094;6.072;2022-09-27T04:51:29;5.43;;;0.88;;
44919;SDS011;30655;53.094;6.072;2022-09-27T05:04:05;3.42;;;0.50;;
44919;SDS011;30655;53.094;6.072;2022-09-27T05:06:59;1.63;;;0.60;;
44919;SDS011;30655;53.094;6.072;2022-09-27T05:19:45;2.30;;;0.73;;
44919;SDS011;30655;53.094;6.072;2022-09-27T05:22:27;2.67;;;0.80;;
44919;SDS011;30655;53.094;6.072;2022-09-27T05:25:34;4.78;;;0.70;;
44919;SDS011;30655;53.094;6.072;2022-09-27T05:31:21;8.02;;;0.75;;
44919;SDS011;30655;53.094;6.072;2022-09-27T05:34:13;4.88;;;0.90;;
44919;SDS011;30655;53.094;6.072;2022-09-27T05:37:14;2.95;;;0.60;;
44919;SDS011;30655;53.094;6.072;2022-09-27T05:39:57;4.80;;;0.70;;
44919;SDS011;30655;53.094;6.072;2022-09-27T05:43:07;3.20;;;0.47;;
44919;SDS011;30655;53.094;6.072;2022-09-27T05:45:50;3.50;;;0.60;;
44919;SDS011;30655;53.094;6.072;2022-09-27T05:48:59;6.43;;;0.90;;
44919;SDS011;30655;53.094;6.072;2022-09-27T05:51:31;3.80;;;0.90;;
44919;SDS011;30655;53.094;6.072;2022-09-27T05:58:01;4.60;;;0.90;;
44919;SDS011;30655;53.094;6.072;2022-09-27T06:00:56;3.70;;;0.50;;
44919;SDS011;30655;53.094;6.072;2022-09-27T06:03:47;2.60;;;0.50;;
44919;SDS011;30655;53.094;6.072;2022-09-27T06:10:39;3.70;;;0.65;;
44919;SDS011;30655;53.094;6.072;2022-09-27T06:13:41;5.45;;;0.65;;
44919;SDS011;30655;53.094;6.072;2022-09-27T06:16:48;3.00;;;0.60;;
44919;SDS011;30655;53.094;6.072;2022-09-27T06:19:32;4.93;;;1.00;;
44919;SDS011;30655;53.094;6.072;2022-09-27T06:26:30;6.68;;;0.60;;
44919;SDS011;30655;53.094;6.072;2022-09-27T06:29:02;4.97;;;0.80;;
44919;SDS011;30655;53.094;6.072;2022-09-27T06:31:57;3.70;;;0.93;;
44919;SDS011;30655;53.094;6.072;2022-09-27T06:35:08;7.80;;;0.70;;
44919;SDS011;30655;53.094;6.072;2022-09-27T06:38:04;3.58;;;0.88;;
44919;SDS011;30655;53.094;6.072;2022-09-27T06:40:59;2.25;;;0.73;;
44919;SDS011;30655;53.094;6.072;2022-09-27T06:44:09;3.20;;;0.60;;
44919;SDS011;30655;53.094;6.072;2022-09-27T06:47:01;3.75;;;1.00;;
44919;SDS011;30655;53.094;6.072;2022-09-27T06:50:09;4.97;;;0.70;;
44919;SDS011;30655;53.094;6.072;2022-09-27T06:52:56;3.22;;;0.77;;
44919;SDS011;30655;53.094;6.072;2022-09-27T06:55:43;4.47;;;0.77;;
44919;SDS011;30655;53.094;6.072;2022-09-27T07:01:48;2.40;;;0.70;;
44919;SDS011;30655;53.094;6.072;2022-09-27T07:04:29;2.15;;;0.40;;
44919;SDS011;30655;53.094;6.072;2022-09-27T07:07:06;2.15;;;0.40;;
44919;SDS011;30655;53.094;6.072;2022-09-27T07:16:01;1.35;;;0.20;;
44919;SDS011;30655;53.094;6.072;2022-09-27T07:21:18;2.60;;;0.70;;
44919;SDS011;30655;53.094;6.072;2022-09-27T07:26:51;1.85;;;0.50;;
44919;SDS011;30655;53.094;6.072;2022-09-27T07:30:10;5.50;;;1.10;;
44919;SDS011;30655;53.094;6.072;2022-09-27T07:35:47;2.60;;;1.20;;
44919;SDS011;30655;53.094;6.072;2022-09-27T07:38:57;4.63;;;1.23;;
44919;SDS011;30655;53.094;6.072;2022-09-27T07:42:04;3.90;;;1.75;;
44919;SDS011;30655;53.094;6.072;2022-09-27T07:45:04;7.30;;;1.52;;
44919;SDS011;30655;53.094;6.072;2022-09-27T07:47:34;2.70;;;0.95;;
44919;SDS011;30655;53.094;6.072;2022-09-27T07:50:31;3.78;;;0.70;;
44919;SDS011;30655;53.094;6.072;2022-09-27T07:56:18;3.58;;;0.68;;
44919;SDS011;30655;53.094;6.072;2022-09-27T07:59:42;1.55;;;0.40;;
44919;SDS011;30655;53.094;6.072;2022-09-27T08:02:58;1.08;;;0.45;;
44919;SDS011;30655;53.094;6.072;2022-09-27T08:09:18;2.42;;;0.85;;
44919;SDS011;30655;53.094;6.072;2022-09-27T08:11:55;4.43;;;0.68;;
44919;SDS011;30655;53.094;6.072;2022-09-27T08:18:04;1.98;;;0.40;;
44919;SDS011;30655;53.094;6.072;2022-09-27T08:21:04;3.95;;;0.82;;
44919;SDS011;30655;53.094;6.072;2022-09-27T08:24:14;3.72;;;0.98;;
44919;SDS011;30655;53.094;6.072;2022-09-27T08:27:13;5.72;;;1.10;;
44919;SDS011;30655;53.094;6.072;2022-09-27T08:33:02;4.45;;;0.60;;
44919;SDS011;30655;53.094;6.072;2022-09-27T08:36:20;2.08;;;0.55;;
44919;SDS011;30655;53.094;6.072;2022-09-27T08:39:22;1.83;;;0.52;;
44919;SDS011;30655;53.094;6.072;2022-09-27T08:42:12;2.22;;;0.30;;
44919;SDS011;30655;53.094;6.072;2022-09-27T08:45:05;3.42;;;0.50;;
44919;SDS011;30655;53.094;6.072;2022-09-27T08:48:00;1.25;;;0.28;;
44919;SDS011;30655;53.094;6.072;2022-09-27T08:50:33;3.10;;;0.40;;
44919;SDS011;30655;53.094;6.072;2022-09-27T08:56:29;10.75;;;1.27;;
44919;SDS011;30655;53.094;6.072;2022-09-27T09:02:46;1.98;;;0.40;;
44919;SDS011;30655;53.094;6.072;2022-09-27T09:05:36;2.92;;;0.40;;
44919;SDS011;30655;53.094;6.072;2022-09-27T09:08:18;1.92;;;0.47;;
44919;SDS011;30655;53.094;6.072;2022-09-27T09:11:24;2.80;;;0.52;;
44919;SDS011;30655;53.094;6.072;2022-09-27T09:21:10;4.90;;;0.55;;
44919;SDS011;30655;53.094;6.072;2022-09-27T09:24:15;4.93;;;0.68;;
44919;SDS011;30655;53.094;6.072;2022-09-27T09:33:58;2.47;;;0.98;;
44919;SDS011;30655;53.094;6.072;2022-09-27T09:39:42;4.43;;;0.50;;
44919;SDS011;30655;53.094;6.072;2022-09-27T09:43:00;3.55;;;1.00;;
44919;SDS011;30655;53.094;6.072;2022-09-27T09:49:01;2.00;;;0.65;;
44919;SDS011;30655;53.094;6.072;2022-09-27T09:54:55;2.60;;;0.32;;
44919;SDS011;30655;53.094;6.072;2022-09-27T09:57:37;5.25;;;0.73;;
44919;SDS011;30655;53.094;6.072;2022-09-27T10:00:28;3.03;;;0.40;;
44919;SDS011;30655;53.094;6.072;2022-09-27T10:03:12;2.65;;;0.50;;
44919;SDS011;30655;53.094;6.072;2022-09-27T10:05:58;2.92;;;0.60;;
44919;SDS011;30655;53.094;6.072;2022-09-27T10:08:46;2.40;;;0.60;;
44919;SDS011;30655;53.094;6.072;2022-09-27T10:14:22;5.35;;;0.63;;
44919;SDS011;30655;53.094;6.072;2022-09-27T10:17:47;2.45;;;0.50;;
44919;SDS011;30655;53.094;6.072;2022-09-27T10:20:29;1.90;;;0.45;;
44919;SDS011;30655;53.094;6.072;2022-09-27T10:23:12;2.50;;;0.60;;
44919;SDS011;30655;53.094;6.072;2022-09-27T10:28:42;3.13;;;0.30;;
44919;SDS011;30655;53.094;6.072;2022-09-27T10:31:32;4.15;;;0.40;;
44919;SDS011;30655;53.094;6.072;2022-09-27T10:37:21;6.03;;;0.63;;
44919;SDS011;30655;53.094;6.072;2022-09-27T10:40:35;3.20;;;0.85;;
44919;SDS011;30655;53.094;6.072;2022-09-27T10:43:27;1.90;;;0.20;;
44919;SDS011;30655;53.094;6.072;2022-09-27T10:46:48;3.45;;;0.80;;
44919;SDS011;30655;53.094;6.072;2022-09-27T10:49:42;2.70;;;0.63;;
44919;SDS011;30655;53.094;6.072;2022-09-27T10:52:14;2.25;;;0.50;;
44919;SDS011;30655;53.094;6.072;2022-09-27T10:58:00;1.40;;;0.30;;
44919;SDS011;30655;53.094;6.072;2022-09-27T11:01:02;2.35;;;0.55;;
44919;SDS011;30655;53.094;6.072;2022-09-27T11:03:58;2.83;;;0.30;;
44919;SDS011;30655;53.094;6.072;2022-09-27T11:06:37;1.85;;;0.35;;
44919;SDS011;30655;53.094;6.072;2022-09-27T11:09:21;2.58;;;0.25;;
44919;SDS011;30655;53.094;6.072;2022-09-27T11:12:29;1.75;;;0.40;;
44919;SDS011;30655;53.094;6.072;2022-09-27T11:24:05;4.18;;;0.47;;
44919;SDS011;30655;53.094;6.072;2022-09-27T11:25:03;1.90;;;0.70;;
44919;SDS011;30655;53.094;6.072;2022-09-27T11:28:11;1.17;;;0.47;;
44919;SDS011;30655;53.094;6.072;2022-09-27T11:31:25;1.65;;;0.20;;
44919;SDS011;30655;53.094;6.072;2022-09-27T11:47:57;4.45;;;1.00;;
44919;SDS011;30655;53.094;6.072;2022-09-27T11:51:21;2.53;;;0.47;;
44919;SDS011;30655;53.094;6.072;2022-09-27T12:10:57;0.70;;;0.20;;
44919;SDS011;30655;53.094;6.072;2022-09-27T12:13:42;1.20;;;0.30;;
44919;SDS011;30655;53.094;6.072;2022-09-27T12:16:35;1.27;;;0.32;;
44919;SDS011;30655;53.094;6.072;2022-09-27T12:19:33;2.67;;;0.50;;
44919;SDS011;30655;53.094;6.072;2022-09-27T12:23:16;1.10;;;0.40;;
44919;SDS011;30655;53.094;6.072;2022-09-27T12:25:59;3.83;;;0.32;;
44919;SDS011;30655;53.094;6.072;2022-09-27T12:29:05;1.67;;;0.25;;
44919;SDS011;30655;53.094;6.072;2022-09-27T12:32:14;1.98;;;0.40;;
44919;SDS011;30655;53.094;6.072;2022-09-27T12:35:09;1.65;;;0.30;;
44919;SDS011;30655;53.094;6.072;2022-09-27T12:38:08;1.92;;;0.30;;
44919;SDS011;30655;53.094;6.072;2022-09-27T12:41:10;2.58;;;0.30;;
44919;SDS011;30655;53.094;6.072;2022-09-27T12:43:58;1.02;;;0.20;;
44919;SDS011;30655;53.094;6.072;2022-09-27T12:50:27;5.47;;;0.68;;
44919;SDS011;30655;53.094;6.072;2022-09-27T13:06:44;3.75;;;1.20;;
44919;SDS011;30655;53.094;6.072;2022-09-27T13:09:48;4.53;;;0.70;;
44919;SDS011;30655;53.094;6.072;2022-09-27T13:36:34;1.95;;;0.40;;
44919;SDS011;30655;53.094;6.072;2022-09-27T13:39:45;1.98;;;0.32;;
44919;SDS011;30655;53.094;6.072;2022-09-27T13:46:02;4.97;;;0.40;;
44919;SDS011;30655;53.094;6.072;2022-09-27T13:49:15;1.67;;;0.43;;
44919;SDS011;30655;53.094;6.072;2022-09-27T14:01:34;2.08;;;0.40;;
44919;SDS011;30655;53.094;6.072;2022-09-27T14:04:22;2.83;;;0.75;;
44919;SDS011;30655;53.094;6.072;2022-09-27T14:07:12;4.18;;;0.73;;
44919;SDS011;30655;53.094;6.072;2022-09-27T14:10:04;1.42;;;0.50;;
44919;SDS011;30655;53.094;6.072;2022-09-27T14:12:54;0.95;;;0.20;;
44919;SDS011;30655;53.094;6.072;2022-09-27T14:15:37;0.57;;;0.20;;
44919;SDS011;30655;53.094;6.072;2022-09-27T14:21:16;0.52;;;0.13;;
44919;SDS011;30655;53.094;6.072;2022-09-27T14:27:17;0.82;;;0.22;;
44919;SDS011;30655;53.094;6.072;2022-09-27T14:30:17;1.35;;;0.38;;
44919;SDS011;30655;53.094;6.072;2022-09-27T14:33:33;1.38;;;0.40;;
44919;SDS011;30655;53.094;6.072;2022-09-27T14:36:18;0.30;;;0.10;;
44919;SDS011;30655;53.094;6.072;2022-09-27T14:39:19;1.42;;;0.25;;
44919;SDS011;30655;53.094;6.072;2022-09-27T14:48:42;1.52;;;0.28;;
44919;SDS011;30655;53.094;6.072;2022-09-27T14:51:37;1.73;;;0.30;;
44919;SDS011;30655;53.094;6.072;2022-09-27T14:54:30;2.20;;;0.60;;
44919;SDS011;30655;53.094;6.072;2022-09-27T14:57:13;0.90;;;0.17;;
44919;SDS011;30655;53.094;6.072;2022-09-27T15:00:16;5.65;;;0.65;;
44919;SDS011;30655;53.094;6.072;2022-09-27T15:03:15;2.72;;;1.52;;
44919;SDS011;30655;53.094;6.072;2022-09-27T15:09:13;1.85;;;0.60;;
44919;SDS011;30655;53.094;6.072;2022-09-27T15:12:03;2.83;;;0.40;;
44919;SDS011;30655;53.094;6.072;2022-09-27T15:14:45;1.52;;;0.32;;
44919;SDS011;30655;53.094;6.072;2022-09-27T15:17:26;1.83;;;0.45;;
44919;SDS011;30655;53.094;6.072;2022-09-27T15:26:24;3.35;;;0.85;;
44919;SDS011;30655;53.094;6.072;2022-09-27T15:29:17;2.72;;;0.80;;
44919;SDS011;30655;53.094;6.072;2022-09-27T15:31:56;2.03;;;0.85;;
44919;SDS011;30655;53.094;6.072;2022-09-27T15:34:41;4.82;;;0.73;;
44919;SDS011;30655;53.094;6.072;2022-09-27T15:43:47;4.65;;;0.98;;
44919;SDS011;30655;53.094;6.072;2022-09-27T15:49:43;2.45;;;0.60;;
44919;SDS011;30655;53.094;6.072;2022-09-27T15:52:38;3.75;;;0.65;;
44919;SDS011;30655;53.094;6.072;2022-09-27T15:55:12;2.70;;;0.40;;
44919;SDS011;30655;53.094;6.072;2022-09-27T15:57:52;1.42;;;0.70;;
44919;SDS011;30655;53.094;6.072;2022-09-27T16:00:33;2.78;;;0.40;;
44919;SDS011;30655;53.094;6.072;2022-09-27T16:03:00;2.15;;;0.47;;
44919;SDS011;30655;53.094;6.072;2022-09-27T16:05:27;1.60;;;0.60;;
44919;SDS011;30655;53.094;6.072;2022-09-27T16:08:07;1.38;;;0.28;;
44919;SDS011;30655;53.094;6.072;2022-09-27T16:10:46;2.93;;;0.30;;
44919;SDS011;30655;53.094;6.072;2022-09-27T16:13:17;0.68;;;0.20;;
44919;SDS011;30655;53.094;6.072;2022-09-27T16:15:45;1.98;;;0.30;;
44919;SDS011;30655;53.094;6.072;2022-09-27T16:18:13;0.88;;;0.57;;
44919;SDS011;30655;53.094;6.072;2022-09-27T16:20:40;1.10;;;0.40;;
44919;SDS011;30655;53.094;6.072;2022-09-27T16:23:07;1.40;;;0.68;;
44919;SDS011;30655;53.094;6.072;2022-09-27T16:25:34;1.15;;;0.50;;
44919;SDS011;30655;53.094;6.072;2022-09-27T16:28:02;0.82;;;0.50;;
44919;SDS011;30655;53.094;6.072;2022-09-27T16:30:32;1.00;;;0.60;;
44919;SDS011;30655;53.094;6.072;2022-09-27T16:33:03;0.70;;;0.60;;
44919;SDS011;30655;53.094;6.072;2022-09-27T16:35:30;1.40;;;1.00;;
44919;SDS011;30655;53.094;6.072;2022-09-27T16:37:57;1.05;;;0.60;;
44919;SDS011;30655;53.094;6.072;2022-09-27T16:40:24;2.50;;;0.75;;
44919;SDS011;30655;53.094;6.072;2022-09-27T16:42:51;1.52;;;0.50;;
44919;SDS011;30655;53.094;6.072;2022-09-27T16:45:17;1.05;;;0.52;;
44919;SDS011;30655;53.094;6.072;2022-09-27T16:47:47;0.60;;;0.30;;
44919;SDS011;30655;53.094;6.072;2022-09-27T16:50:15;0.63;;;0.50;;
44919;SDS011;30655;53.094;6.072;2022-09-27T16:52:42;0.77;;;0.60;;
44919;SDS011;30655;53.094;6.072;2022-09-27T16:55:10;1.00;;;0.50;;
44919;SDS011;30655;53.094;6.072;2022-09-27T16:57:37;2.83;;;0.60;;
44919;SDS011;30655;53.094;6.072;2022-09-27T17:00:07;1.98;;;0.50;;
44919;SDS011;30655;53.094;6.072;2022-09-27T17:02:55;1.25;;;0.43;;
44919;SDS011;30655;53.094;6.072;2022-09-27T17:05:27;2.65;;;0.47;;
44919;SDS011;30655;53.094;6.072;2022-09-27T17:08:02;1.42;;;0.38;;
44919;SDS011;30655;53.094;6.072;2022-09-27T17:10:29;4.10;;;0.60;;
44919;SDS011;30655;53.094;6.072;2022-09-27T17:12:56;1.30;;;0.50;;
44919;SDS011;30655;53.094;6.072;2022-09-27T17:15:23;2.88;;;0.52;;
44919;SDS011;30655;53.094;6.072;2022-09-27T17:17:55;3.15;;;0.85;;
44919;SDS011;30655;53.094;6.072;2022-09-27T17:20:26;3.83;;;0.60;;
44919;SDS011;30655;53.094;6.072;2022-09-27T17:23:01;3.28;;;0.65;;
44919;SDS011;30655;53.094;6.072;2022-09-27T17:25:30;3.25;;;0.70;;
44919;SDS011;30655;53.094;6.072;2022-09-27T17:28:00;3.35;;;0.60;;
44919;SDS011;30655;53.094;6.072;2022-09-27T17:30:34;3.80;;;0.95;;
44919;SDS011;30655;53.094;6.072;2022-09-27T17:33:10;4.43;;;0.88;;
44919;SDS011;30655;53.094;6.072;2022-09-27T17:35:38;5.28;;;0.70;;
44919;SDS011;30655;53.094;6.072;2022-09-27T17:38:08;2.85;;;0.77;;
44919;SDS011;30655;53.094;6.072;2022-09-27T17:40:35;2.45;;;0.77;;
44919;SDS011;30655;53.094;6.072;2022-09-27T17:43:04;2.05;;;0.65;;
44919;SDS011;30655;53.094;6.072;2022-09-27T17:45:34;3.38;;;0.52;;
44919;SDS011;30655;53.094;6.072;2022-09-27T17:48:02;3.33;;;0.50;;
44919;SDS011;30655;53.094;6.072;2022-09-27T17:50:42;0.85;;;0.50;;
44919;SDS011;30655;53.094;6.072;2022-09-27T17:53:11;2.47;;;0.60;;
44919;SDS011;30655;53.094;6.072;2022-09-27T17:55:43;1.83;;;0.32;;
44919;SDS011;30655;53.094;6.072;2022-09-27T17:58:18;1.55;;;0.40;;
44919;SDS011;30655;53.094;6.072;2022-09-27T18:00:45;3.08;;;0.40;;
44919;SDS011;30655;53.094;6.072;2022-09-27T18:03:14;2.90;;;0.40;;
44919;SDS011;30655;53.094;6.072;2022-09-27T18:05:45;4.30;;;0.57;;
44919;SDS011;30655;53.094;6.072;2022-09-27T18:08:15;3.75;;;0.88;;
44919;SDS011;30655;53.094;6.072;2022-09-27T18:10:44;1.88;;;0.70;;
44919;SDS011;30655;53.094;6.072;2022-09-27T18:13:13;1.48;;;0.47;;
44919;SDS011;30655;53.094;6.072;2022-09-27T18:15:43;3.90;;;1.13;;
44919;SDS011;30655;53.094;6.072;2022-09-27T18:18:19;4.18;;;1.02;;
44919;SDS011;30655;53.094;6.072;2022-09-27T18:20:54;4.22;;;0.82;;
44919;SDS011;30655;53.094;6.072;2022-09-27T18:23:27;1.90;;;0.82;;
44919;SDS011;30655;53.094;6.072;2022-09-27T18:26:04;2.38;;;1.23;;
44919;SDS011;30655;53.094;6.072;2022-09-27T18:28:37;3.50;;;1.50;;
44919;SDS011;30655;53.094;6.072;2022-09-27T18:31:06;2.58;;;1.15;;
44919;SDS011;30655;53.094;6.072;2022-09-27T18:33:36;2.00;;;1.45;;
44919;SDS011;30655;53.094;6.072;2022-09-27T18:36:07;3.17;;;1.17;;
44919;SDS011;30655;53.094;6.072;2022-09-27T18:38:36;4.32;;;1.15;;
44919;SDS011;30655;53.094;6.072;2022-09-27T18:41:06;2.60;;;1.00;;
44919;SDS011;30655;53.094;6.072;2022-09-27T18:43:34;1.77;;;0.90;;
44919;SDS011;30655;53.094;6.072;2022-09-27T18:46:05;2.78;;;1.30;;
44919;SDS011;30655;53.094;6.072;2022-09-27T18:48:52;2.88;;;1.00;;
44919;SDS011;30655;53.094;6.072;2022-09-27T18:51:21;2.45;;;0.80;;
44919;SDS011;30655;53.094;6.072;2022-09-27T18:53:54;1.92;;;1.40;;
44919;SDS011;30655;53.094;6.072;2022-09-27T18:56:23;0.88;;;0.75;;
44919;SDS011;30655;53.094;6.072;2022-09-27T18:58:51;3.08;;;1.42;;
44919;SDS011;30655;53.094;6.072;2022-09-27T19:01:18;1.55;;;1.25;;
44919;SDS011;30655;53.094;6.072;2022-09-27T19:03:46;3.00;;;1.27;;
44919;SDS011;30655;53.094;6.072;2022-09-27T19:06:14;1.63;;;1.10;;
44919;SDS011;30655;53.094;6.072;2022-09-27T19:11:28;3.00;;;2.70;;
44919;SDS011;30655;53.094;6.072;2022-09-27T19:13:56;2.50;;;1.13;;
44919;SDS011;30655;53.094;6.072;2022-09-27T19:16:29;5.07;;;1.35;;
44919;SDS011;30655;53.094;6.072;2022-09-27T19:19:01;6.75;;;1.45;;
44919;SDS011;30655;53.094;6.072;2022-09-27T19:21:30;2.38;;;1.48;;
44919;SDS011;30655;53.094;6.072;2022-09-27T19:24:25;1.65;;;1.55;;
44919;SDS011;30655;53.094;6.072;2022-09-27T19:27:12;5.72;;;2.17;;
44919;SDS011;30655;53.094;6.072;2022-09-27T19:29:47;5.07;;;2.60;;
44919;SDS011;30655;53.094;6.072;2022-09-27T19:32:29;3.05;;;2.75;;
44919;SDS011;30655;53.094;6.072;2022-09-27T19:35:00;2.70;;;2.20;;
44919;SDS011;30655;53.094;6.072;2022-09-27T19:37:27;5.07;;;2.20;;
44919;SDS011;30655;53.094;6.072;2022-09-27T19:40:02;2.95;;;2.30;;
44919;SDS011;30655;53.094;6.072;2022-09-27T19:42:36;3.85;;;2.03;;
44919;SDS011;30655;53.094;6.072;2022-09-27T19:45:03;4.55;;;2.30;;
44919;SDS011;30655;53.094;6.072;2022-09-27T19:47:39;4.80;;;2.08;;
44919;SDS011;30655;53.094;6.072;2022-09-27T19:50:14;2.55;;;2.35;;
44919;SDS011;30655;53.094;6.072;2022-09-27T19:52:57;2.70;;;2.33;;
44919;SDS011;30655;53.094;6.072;2022-09-27T19:55:28;3.47;;;2.00;;
44919;SDS011;30655;53.094;6.072;2022-09-27T19:58:15;3.65;;;1.90;;
44919;SDS011;30655;53.094;6.072;2022-09-27T20:00:42;2.38;;;1.85;;
44919;SDS011;30655;53.094;6.072;2022-09-27T20:03:17;6.10;;;2.15;;
44919;SDS011;30655;53.094;6.072;2022-09-27T20:05:54;3.67;;;1.77;;
44919;SDS011;30655;53.094;6.072;2022-09-27T20:08:23;5.85;;;1.90;;
44919;SDS011;30655;53.094;6.072;2022-09-27T20:14:19;1.88;;;1.77;;
44919;SDS011;30655;53.094;6.072;2022-09-27T20:16:48;5.88;;;1.98;;
44919;SDS011;30655;53.094;6.072;2022-09-27T20:19:22;3.25;;;2.20;;
44919;SDS011;30655;53.094;6.072;2022-09-27T20:22:04;4.57;;;2.45;;
44919;SDS011;30655;53.094;6.072;2022-09-27T20:24:34;4.45;;;2.53;;
44919;SDS011;30655;53.094;6.072;2022-09-27T20:27:07;7.75;;;2.35;;
44919;SDS011;30655;53.094;6.072;2022-09-27T20:29:40;4.05;;;2.60;;
44919;SDS011;30655;53.094;6.072;2022-09-27T20:32:11;4.25;;;2.50;;
44919;SDS011;30655;53.094;6.072;2022-09-27T20:34:54;2.28;;;2.08;;
44919;SDS011;30655;53.094;6.072;2022-09-27T20:37:22;3.38;;;1.90;;
44919;SDS011;30655;53.094;6.072;2022-09-27T20:39:49;3.38;;;1.50;;
44919;SDS011;30655;53.094;6.072;2022-09-27T20:42:21;5.30;;;2.10;;
44919;SDS011;30655;53.094;6.072;2022-09-27T20:44:58;3.17;;;1.80;;
44919;SDS011;30655;53.094;6.072;2022-09-27T20:51:01;2.90;;;1.50;;
44919;SDS011;30655;53.094;6.072;2022-09-27T20:53:57;4.00;;;1.50;;
44919;SDS011;30655;53.094;6.072;2022-09-27T20:56:59;2.95;;;1.40;;
44919;SDS011;30655;53.094;6.072;2022-09-27T21:00:04;2.08;;;1.40;;
44919;SDS011;30655;53.094;6.072;2022-09-27T21:05:02;3.15;;;1.25;;
44919;SDS011;30655;53.094;6.072;2022-09-27T21:07:29;3.67;;;1.42;;
44919;SDS011;30655;53.094;6.072;2022-09-27T21:09:55;1.85;;;1.70;;
44919;SDS011;30655;53.094;6.072;2022-09-27T21:12:22;6.72;;;1.50;;
44919;SDS011;30655;53.094;6.072;2022-09-27T21:14:51;3.22;;;1.60;;
44919;SDS011;30655;53.094;6.072;2022-09-27T21:17:23;3.08;;;1.80;;
44919;SDS011;30655;53.094;6.072;2022-09-27T21:19:51;3.35;;;1.80;;
44919;SDS011;30655;53.094;6.072;2022-09-27T21:22:18;4.78;;;2.05;;
44919;SDS011;30655;53.094;6.072;2022-09-27T21:24:51;3.97;;;1.67;;
44919;SDS011;30655;53.094;6.072;2022-09-27T21:27:22;5.95;;;1.83;;